createdAt,value
2017-02-28T00:00:05.519Z,21.34
2017-02-28T00:00:33.587Z,21.36
2017-02-28T00:01:01.826Z,21.4
2017-02-28T00:01:29.935Z,21.4
2017-02-28T00:01:58.101Z,21.43
2017-02-28T00:02:26.193Z,21.37
2017-02-28T00:02:54.326Z,21.3
2017-02-28T00:03:22.532Z,21.43
2017-02-28T00:03:50.621Z,21.33
2017-02-28T00:04:18.858Z,21.36
2017-02-28T00:04:47.170Z,21.37
2017-02-28T00:05:15.296Z,21.38
2017-02-28T00:05:43.237Z,21.36
2017-02-28T00:06:11.303Z,21.4
2017-02-28T00:06:39.598Z,21.34
2017-02-28T00:07:07.652Z,21.41
2017-02-28T00:07:35.804Z,21.3
2017-02-28T00:08:04.035Z,21.36
2017-02-28T00:08:31.945Z,21.36
2017-02-28T00:08:59.827Z,21.31
2017-02-28T00:09:27.941Z,21.21
2017-02-28T00:09:56.455Z,21.33
2017-02-28T00:10:24.713Z,21.33
2017-02-28T00:10:52.867Z,21.23
2017-02-28T00:11:21.055Z,21.3
2017-02-28T00:11:49.060Z,21.22
2017-02-28T00:12:17.204Z,21.21
2017-02-28T00:12:45.410Z,21.22
2017-02-28T00:13:13.555Z,21.22
2017-02-28T00:13:41.662Z,21.23
2017-02-28T00:14:09.897Z,21.27
2017-02-28T00:14:38.020Z,21.27
2017-02-28T00:15:06.366Z,21.12
2017-02-28T00:15:34.606Z,21.16
2017-02-28T00:16:02.834Z,21.22
2017-02-28T00:16:31.112Z,21.21
2017-02-28T00:16:59.082Z,21.15
2017-02-28T00:17:27.232Z,21.27
2017-02-28T00:17:55.192Z,21.18
2017-02-28T00:18:23.239Z,21.21
2017-02-28T00:18:51.267Z,21.13
2017-02-28T00:19:19.433Z,21.15
2017-02-28T00:19:47.584Z,21.13
2017-02-28T00:20:15.933Z,21.16
2017-02-28T00:20:44.219Z,21.15
2017-02-28T00:21:12.424Z,21.12
2017-02-28T00:21:40.586Z,21.16
2017-02-28T00:22:08.716Z,21.19
2017-02-28T00:22:36.815Z,21.18
2017-02-28T00:23:04.980Z,21.16
2017-02-28T00:23:33.168Z,21.09
2017-02-28T00:24:01.187Z,21.01
2017-02-28T00:24:29.420Z,21.12
2017-02-28T00:24:57.498Z,21.01
2017-02-28T00:25:25.508Z,21.08
2017-02-28T00:25:53.695Z,20.98
2017-02-28T00:26:21.694Z,21.13
2017-02-28T00:26:49.947Z,21
2017-02-28T00:27:18.133Z,20.97
2017-02-28T00:27:46.280Z,21.04
2017-02-28T00:28:14.447Z,20.98
2017-02-28T00:28:42.467Z,21.08
2017-02-28T00:29:10.600Z,21.03
2017-02-28T00:29:38.535Z,20.94
2017-02-28T00:30:06.915Z,21.01
2017-02-28T00:30:34.920Z,21.04
2017-02-28T00:31:02.977Z,20.97
2017-02-28T00:31:31.075Z,21.01
2017-02-28T00:31:59.234Z,20.97
2017-02-28T00:32:27.477Z,21.04
2017-02-28T00:32:55.530Z,21.01
2017-02-28T00:33:23.508Z,21.06
2017-02-28T00:33:51.633Z,21.03
2017-02-28T00:34:19.801Z,21
2017-02-28T00:34:47.946Z,20.96
2017-02-28T00:35:16.293Z,21.06
2017-02-28T00:35:44.543Z,21.01
2017-02-28T00:36:12.738Z,21
2017-02-28T00:36:40.895Z,21.11
2017-02-28T00:37:08.997Z,21.13
2017-02-28T00:37:37.030Z,21.12
2017-02-28T00:38:05.155Z,21.08
2017-02-28T00:38:33.372Z,21.11
2017-02-28T00:39:01.582Z,21.04
2017-02-28T00:39:29.717Z,21
2017-02-28T00:39:57.804Z,21.06
2017-02-28T00:40:26.165Z,21.06
2017-02-28T00:40:54.253Z,21.01
2017-02-28T00:41:22.431Z,21.04
2017-02-28T00:41:50.567Z,21.01
2017-02-28T00:42:18.923Z,21.03
2017-02-28T00:42:47.125Z,20.98
2017-02-28T00:43:15.246Z,20.98
2017-02-28T00:43:43.379Z,20.93
2017-02-28T00:44:11.454Z,20.83
2017-02-28T00:44:39.601Z,20.91
2017-02-28T00:45:07.668Z,20.88
2017-02-28T00:45:35.909Z,20.9
2017-02-28T00:46:03.982Z,20.93
2017-02-28T00:46:32.877Z,20.85
2017-02-28T00:47:01.859Z,20.81
2017-02-28T00:47:30.154Z,20.88
2017-02-28T00:47:58.483Z,20.85
2017-02-28T00:48:26.411Z,20.79
2017-02-28T00:48:54.678Z,20.88
2017-02-28T00:49:22.737Z,20.83
2017-02-28T00:49:50.737Z,20.86
2017-02-28T00:50:18.940Z,20.86
2017-02-28T00:50:47.152Z,20.82
2017-02-28T00:51:15.306Z,20.81
2017-02-28T00:51:43.449Z,20.88
2017-02-28T00:52:11.575Z,20.81
2017-02-28T00:52:39.716Z,20.86
2017-02-28T00:53:07.821Z,20.91
2017-02-28T00:53:36.055Z,20.85
2017-02-28T00:54:04.196Z,20.75
2017-02-28T00:54:32.383Z,20.78
2017-02-28T00:55:00.605Z,20.82
2017-02-28T00:55:28.974Z,20.85
2017-02-28T00:55:57.085Z,20.85
2017-02-28T00:56:25.224Z,20.85
2017-02-28T00:56:53.435Z,20.88
2017-02-28T00:57:21.659Z,20.88
2017-02-28T00:57:49.811Z,20.86
2017-02-28T00:58:17.900Z,20.91
2017-02-28T00:58:45.987Z,20.78
2017-02-28T00:59:13.959Z,20.81
2017-02-28T00:59:42.076Z,20.83
2017-02-28T01:00:10.217Z,20.81
2017-02-28T01:00:38.485Z,20.88
2017-02-28T01:01:06.624Z,20.86
2017-02-28T01:01:34.874Z,20.86
2017-02-28T01:02:03.158Z,20.91
2017-02-28T01:02:31.269Z,20.83
2017-02-28T01:02:59.259Z,20.82
2017-02-28T01:03:27.187Z,20.88
2017-02-28T01:03:55.400Z,20.83
2017-02-28T01:04:23.470Z,20.85
2017-02-28T01:04:51.739Z,20.86
2017-02-28T01:05:20.067Z,20.86
2017-02-28T01:05:48.171Z,20.88
2017-02-28T01:06:16.182Z,20.86
2017-02-28T01:06:44.135Z,20.85
2017-02-28T01:07:12.360Z,20.9
2017-02-28T01:07:40.532Z,20.88
2017-02-28T01:08:08.645Z,20.82
2017-02-28T01:08:36.728Z,20.88
2017-02-28T01:09:04.902Z,20.86
2017-02-28T01:09:33.165Z,20.82
2017-02-28T01:10:01.117Z,20.76
2017-02-28T01:10:29.475Z,20.83
2017-02-28T01:10:57.700Z,20.78
2017-02-28T01:11:25.605Z,20.76
2017-02-28T01:11:53.740Z,20.74
2017-02-28T01:12:21.759Z,20.79
2017-02-28T01:12:49.747Z,20.82
2017-02-28T01:13:17.987Z,20.82
2017-02-28T01:13:46.892Z,20.83
2017-02-28T01:14:14.958Z,20.82
2017-02-28T01:14:43.027Z,20.76
2017-02-28T01:15:11.047Z,20.74
2017-02-28T01:15:39.384Z,20.82
2017-02-28T01:16:07.534Z,20.78
2017-02-28T01:16:35.505Z,20.78
2017-02-28T01:17:03.486Z,20.82
2017-02-28T01:17:31.611Z,20.78
2017-02-28T01:17:59.831Z,20.85
2017-02-28T01:18:27.997Z,20.82
2017-02-28T01:18:56.206Z,20.78
2017-02-28T01:19:24.284Z,20.72
2017-02-28T01:19:52.446Z,20.81
2017-02-28T01:20:20.523Z,20.76
2017-02-28T01:20:48.781Z,20.76
2017-02-28T01:21:16.917Z,20.81
2017-02-28T01:21:45.075Z,20.75
2017-02-28T01:22:13.336Z,20.75
2017-02-28T01:22:41.532Z,20.81
2017-02-28T01:23:09.792Z,20.71
2017-02-28T01:23:38.066Z,20.78
2017-02-28T01:24:06.067Z,20.72
2017-02-28T01:24:34.222Z,20.71
2017-02-28T01:25:02.475Z,20.74
2017-02-28T01:25:30.520Z,20.81
2017-02-28T01:25:58.782Z,20.81
2017-02-28T01:26:26.905Z,20.71
2017-02-28T01:26:55.062Z,20.72
2017-02-28T01:27:23.217Z,20.74
2017-02-28T01:27:51.329Z,20.79
2017-02-28T01:28:19.369Z,20.76
2017-02-28T01:28:47.516Z,20.71
2017-02-28T01:29:15.603Z,20.72
2017-02-28T01:29:43.669Z,20.72
2017-02-28T01:30:11.914Z,20.68
2017-02-28T01:30:40.038Z,20.71
2017-02-28T01:31:08.176Z,20.72
2017-02-28T01:31:36.376Z,20.68
2017-02-28T01:32:04.539Z,20.64
2017-02-28T01:32:32.659Z,20.66
2017-02-28T01:33:00.792Z,20.61
2017-02-28T01:33:28.804Z,20.56
2017-02-28T01:33:56.972Z,20.61
2017-02-28T01:34:25.133Z,20.64
2017-02-28T01:34:53.155Z,20.61
2017-02-28T01:35:21.224Z,20.61
2017-02-28T01:35:49.390Z,20.61
2017-02-28T01:36:17.450Z,20.61
2017-02-28T01:36:45.690Z,20.57
2017-02-28T01:37:13.765Z,20.58
2017-02-28T01:37:41.951Z,20.57
2017-02-28T01:38:10.156Z,20.61
2017-02-28T01:38:38.264Z,20.57
2017-02-28T01:39:06.287Z,20.61
2017-02-28T01:39:34.380Z,20.6
2017-02-28T01:40:02.523Z,20.58
2017-02-28T01:40:30.682Z,20.57
2017-02-28T01:40:59.022Z,20.57
2017-02-28T01:41:27.188Z,20.61
2017-02-28T01:41:55.190Z,20.63
2017-02-28T01:42:23.389Z,20.61
2017-02-28T01:42:51.446Z,20.6
2017-02-28T01:43:19.593Z,20.56
2017-02-28T01:43:47.615Z,20.54
2017-02-28T01:44:15.739Z,20.61
2017-02-28T01:44:44.046Z,20.58
2017-02-28T01:45:12.286Z,20.53
2017-02-28T01:45:40.542Z,20.57
2017-02-28T01:46:08.888Z,20.6
2017-02-28T01:46:36.955Z,20.61
2017-02-28T01:47:05.145Z,20.61
2017-02-28T01:47:33.244Z,20.57
2017-02-28T01:48:01.543Z,20.6
2017-02-28T01:48:29.591Z,20.6
2017-02-28T01:48:57.723Z,20.57
2017-02-28T01:49:25.838Z,20.67
2017-02-28T01:49:54.056Z,20.67
2017-02-28T01:50:22.178Z,20.64
2017-02-28T01:50:50.430Z,20.72
2017-02-28T01:51:18.658Z,20.72
2017-02-28T01:51:46.662Z,20.76
2017-02-28T01:52:14.839Z,20.74
2017-02-28T01:52:42.972Z,20.78
2017-02-28T01:53:11.283Z,20.76
2017-02-28T01:53:39.364Z,20.78
2017-02-28T01:54:07.527Z,20.81
2017-02-28T01:54:35.694Z,20.83
2017-02-28T01:55:03.736Z,20.74
2017-02-28T01:55:31.932Z,20.83
2017-02-28T01:56:00.219Z,20.76
2017-02-28T01:56:28.266Z,20.78
2017-02-28T01:56:56.413Z,20.86
2017-02-28T01:57:24.429Z,20.78
2017-02-28T01:57:52.718Z,20.83
2017-02-28T01:58:21.650Z,20.81
2017-02-28T01:58:49.700Z,20.83
2017-02-28T01:59:17.899Z,20.85
2017-02-28T01:59:46.042Z,20.86
2017-02-28T02:00:14.123Z,20.83
2017-02-28T02:00:42.282Z,20.85
2017-02-28T02:01:10.426Z,20.78
2017-02-28T02:01:38.544Z,20.79
2017-02-28T02:02:06.767Z,20.83
2017-02-28T02:02:34.794Z,20.91
2017-02-28T02:03:03.160Z,20.83
2017-02-28T02:03:31.232Z,20.74
2017-02-28T02:03:59.206Z,20.83
2017-02-28T02:04:27.333Z,20.79
2017-02-28T02:04:55.423Z,20.85
2017-02-28T02:05:23.561Z,20.78
2017-02-28T02:05:51.712Z,20.78
2017-02-28T02:06:19.867Z,20.75
2017-02-28T02:06:47.667Z,20.79
2017-02-28T02:07:15.953Z,20.76
2017-02-28T02:07:43.952Z,20.76
2017-02-28T02:08:12.019Z,20.67
2017-02-28T02:08:40.319Z,20.67
2017-02-28T02:09:08.504Z,20.68
2017-02-28T02:09:36.783Z,20.56
2017-02-28T02:10:04.917Z,20.66
2017-02-28T02:10:33.200Z,20.57
2017-02-28T02:11:01.426Z,20.68
2017-02-28T02:11:29.835Z,20.71
2017-02-28T02:11:57.986Z,20.64
2017-02-28T02:12:26.019Z,20.6
2017-02-28T02:12:54.153Z,20.56
2017-02-28T02:13:22.268Z,20.61
2017-02-28T02:13:50.392Z,20.56
2017-02-28T02:14:18.563Z,20.66
2017-02-28T02:14:46.758Z,20.6
2017-02-28T02:15:14.886Z,20.57
2017-02-28T02:15:42.942Z,20.6
2017-02-28T02:16:11.203Z,20.58
2017-02-28T02:16:39.326Z,20.61
2017-02-28T02:17:07.568Z,20.57
2017-02-28T02:17:35.749Z,20.58
2017-02-28T02:18:04.041Z,20.61
2017-02-28T02:18:32.301Z,20.58
2017-02-28T02:19:00.693Z,20.46
2017-02-28T02:19:28.770Z,20.54
2017-02-28T02:19:56.925Z,20.42
2017-02-28T02:20:25.112Z,20.49
2017-02-28T02:20:53.132Z,20.44
2017-02-28T02:21:21.345Z,20.44
2017-02-28T02:21:49.405Z,20.41
2017-02-28T02:22:17.545Z,20.46
2017-02-28T02:22:45.605Z,20.34
2017-02-28T02:23:13.708Z,20.35
2017-02-28T02:23:41.761Z,20.46
2017-02-28T02:24:09.682Z,20.44
2017-02-28T02:24:37.905Z,20.48
2017-02-28T02:25:05.985Z,20.37
2017-02-28T02:25:33.992Z,20.49
2017-02-28T02:26:02.134Z,20.44
2017-02-28T02:26:30.365Z,20.51
2017-02-28T02:26:58.604Z,20.48
2017-02-28T02:27:26.588Z,20.49
2017-02-28T02:27:54.659Z,20.44
2017-02-28T02:28:22.622Z,20.38
2017-02-28T02:28:50.716Z,20.41
2017-02-28T02:29:18.987Z,20.38
2017-02-28T02:29:47.147Z,20.32
2017-02-28T02:30:15.205Z,20.41
2017-02-28T02:30:43.323Z,20.41
2017-02-28T02:31:11.537Z,20.4
2017-02-28T02:31:39.557Z,20.27
2017-02-28T02:32:07.698Z,20.32
2017-02-28T02:32:35.829Z,20.37
2017-02-28T02:33:04.048Z,20.29
2017-02-28T02:33:32.002Z,20.38
2017-02-28T02:34:00.161Z,20.42
2017-02-28T02:34:28.274Z,20.37
2017-02-28T02:34:56.276Z,20.34
2017-02-28T02:35:24.412Z,20.29
2017-02-28T02:35:52.506Z,20.29
2017-02-28T02:36:20.904Z,20.27
2017-02-28T02:36:49.141Z,20.29
2017-02-28T02:37:17.308Z,20.34
2017-02-28T02:37:45.273Z,20.25
2017-02-28T02:38:13.314Z,20.25
2017-02-28T02:38:41.380Z,20.29
2017-02-28T02:39:09.593Z,20.23
2017-02-28T02:39:37.663Z,20.29
2017-02-28T02:40:05.813Z,20.23
2017-02-28T02:40:33.918Z,20.15
2017-02-28T02:41:01.962Z,20.2
2017-02-28T02:41:30.167Z,20.16
2017-02-28T02:41:58.339Z,20.22
2017-02-28T02:42:26.446Z,20.19
2017-02-28T02:42:54.594Z,20.19
2017-02-28T02:43:22.649Z,20.19
2017-02-28T02:43:50.808Z,20.18
2017-02-28T02:44:18.815Z,20.08
2017-02-28T02:44:46.867Z,20.12
2017-02-28T02:45:15.150Z,20.15
2017-02-28T02:45:43.183Z,20.15
2017-02-28T02:46:11.191Z,20.1
2017-02-28T02:46:39.528Z,19.95
2017-02-28T02:47:07.650Z,20
2017-02-28T02:47:35.882Z,20.07
2017-02-28T02:48:04.000Z,20.05
2017-02-28T02:48:32.232Z,19.98
2017-02-28T02:49:00.318Z,19.97
2017-02-28T02:49:28.572Z,19.92
2017-02-28T02:49:56.672Z,19.92
2017-02-28T02:50:24.865Z,19.87
2017-02-28T02:50:53.068Z,19.93
2017-02-28T02:51:21.148Z,19.98
2017-02-28T02:51:49.426Z,20.08
2017-02-28T02:52:17.711Z,19.98
2017-02-28T02:52:45.946Z,20
2017-02-28T02:53:14.000Z,19.93
2017-02-28T02:53:41.847Z,19.98
2017-02-28T02:54:09.887Z,19.98
2017-02-28T02:54:37.927Z,20
2017-02-28T02:55:06.149Z,19.97
2017-02-28T02:55:34.358Z,20.01
2017-02-28T02:56:02.490Z,20.02
2017-02-28T02:56:30.859Z,20.07
2017-02-28T02:56:59.404Z,20.07
2017-02-28T02:57:27.528Z,20.1
2017-02-28T02:57:55.679Z,20.08
2017-02-28T02:58:23.823Z,20.11
2017-02-28T02:58:52.076Z,20.07
2017-02-28T02:59:20.370Z,20.11
2017-02-28T02:59:48.530Z,20
2017-02-28T03:00:16.792Z,20.12
2017-02-28T03:00:44.807Z,20.08
2017-02-28T03:01:12.986Z,20.1
2017-02-28T03:01:41.300Z,20.04
2017-02-28T03:02:09.308Z,20.08
2017-02-28T03:02:37.337Z,20.08
2017-02-28T03:03:05.497Z,20.07
2017-02-28T03:03:33.645Z,20.07
2017-02-28T03:04:01.889Z,20.07
2017-02-28T03:04:30.152Z,20.07
2017-02-28T03:04:58.411Z,20.1
2017-02-28T03:05:26.713Z,20.08
2017-02-28T03:05:54.984Z,20.05
2017-02-28T03:06:23.311Z,20.1
2017-02-28T03:06:51.410Z,20.02
2017-02-28T03:07:19.598Z,20.08
2017-02-28T03:07:47.823Z,20.05
2017-02-28T03:08:15.866Z,20.11
2017-02-28T03:08:43.900Z,20.08
2017-02-28T03:09:12.007Z,20.1
2017-02-28T03:09:40.065Z,20.12
2017-02-28T03:10:08.183Z,20.02
2017-02-28T03:10:36.397Z,19.95
2017-02-28T03:11:04.372Z,20
2017-02-28T03:11:32.558Z,20.02
2017-02-28T03:12:00.822Z,19.98
2017-02-28T03:12:29.017Z,19.97
2017-02-28T03:12:57.240Z,19.97
2017-02-28T03:13:25.219Z,20.05
2017-02-28T03:13:53.244Z,19.97
2017-02-28T03:14:21.257Z,19.98
2017-02-28T03:14:49.402Z,20.02
2017-02-28T03:15:17.707Z,20.02
2017-02-28T03:15:45.777Z,20.01
2017-02-28T03:16:14.017Z,19.95
2017-02-28T03:16:42.020Z,20.04
2017-02-28T03:17:10.366Z,19.95
2017-02-28T03:17:38.487Z,19.98
2017-02-28T03:18:06.642Z,20.04
2017-02-28T03:18:35.171Z,20.05
2017-02-28T03:19:03.227Z,20.04
2017-02-28T03:19:31.286Z,20.02
2017-02-28T03:19:59.407Z,20
2017-02-28T03:20:27.472Z,19.97
2017-02-28T03:20:55.695Z,19.98
2017-02-28T03:21:23.955Z,19.89
2017-02-28T03:21:52.308Z,19.93
2017-02-28T03:22:20.575Z,19.92
2017-02-28T03:22:48.568Z,19.83
2017-02-28T03:23:16.683Z,19.92
2017-02-28T03:23:44.769Z,19.89
2017-02-28T03:24:12.956Z,19.92
2017-02-28T03:24:41.179Z,19.93
2017-02-28T03:25:09.388Z,19.93
2017-02-28T03:25:37.454Z,19.93
2017-02-28T03:26:05.438Z,19.98
2017-02-28T03:26:33.418Z,19.89
2017-02-28T03:27:01.635Z,19.95
2017-02-28T03:27:29.786Z,19.92
2017-02-28T03:27:57.993Z,19.85
2017-02-28T03:28:26.135Z,19.78
2017-02-28T03:28:54.175Z,19.79
2017-02-28T03:29:22.428Z,19.85
2017-02-28T03:29:50.575Z,19.9
2017-02-28T03:30:18.641Z,19.83
2017-02-28T03:30:46.871Z,19.86
2017-02-28T03:31:15.016Z,19.93
2017-02-28T03:31:43.256Z,19.8
2017-02-28T03:32:11.233Z,19.79
2017-02-28T03:32:39.272Z,19.86
2017-02-28T03:33:07.368Z,19.85
2017-02-28T03:33:35.439Z,19.74
2017-02-28T03:34:03.474Z,19.82
2017-02-28T03:34:31.730Z,19.74
2017-02-28T03:34:59.808Z,19.71
2017-02-28T03:35:27.885Z,19.75
2017-02-28T03:35:56.073Z,19.72
2017-02-28T03:36:24.285Z,19.78
2017-02-28T03:36:52.392Z,19.75
2017-02-28T03:37:20.655Z,19.75
2017-02-28T03:37:48.816Z,19.78
2017-02-28T03:38:16.986Z,19.75
2017-02-28T03:38:45.353Z,19.71
2017-02-28T03:39:13.574Z,19.72
2017-02-28T03:39:42.063Z,19.72
2017-02-28T03:40:10.346Z,19.72
2017-02-28T03:40:38.495Z,19.78
2017-02-28T03:41:06.526Z,19.74
2017-02-28T03:41:34.550Z,19.72
2017-02-28T03:42:02.779Z,19.72
2017-02-28T03:42:31.103Z,19.71
2017-02-28T03:42:59.310Z,19.74
2017-02-28T03:43:27.574Z,19.72
2017-02-28T03:43:55.771Z,19.65
2017-02-28T03:44:23.908Z,19.72
2017-02-28T03:44:52.018Z,19.68
2017-02-28T03:45:19.954Z,19.7
2017-02-28T03:45:48.155Z,19.67
2017-02-28T03:46:16.366Z,19.63
2017-02-28T03:46:44.692Z,19.65
2017-02-28T03:47:13.263Z,19.64
2017-02-28T03:47:41.659Z,19.65
2017-02-28T03:48:09.713Z,19.61
2017-02-28T03:48:37.806Z,19.65
2017-02-28T03:49:06.075Z,19.65
2017-02-28T03:49:34.128Z,19.65
2017-02-28T03:50:02.398Z,19.56
2017-02-28T03:50:30.702Z,19.67
2017-02-28T03:50:59.154Z,19.65
2017-02-28T03:51:27.150Z,19.61
2017-02-28T03:51:55.184Z,19.7
2017-02-28T03:52:23.178Z,19.65
2017-02-28T03:52:51.245Z,19.64
2017-02-28T03:53:19.708Z,19.63
2017-02-28T03:53:47.824Z,19.67
2017-02-28T03:54:16.025Z,19.72
2017-02-28T03:54:44.721Z,19.71
2017-02-28T03:55:12.758Z,19.74
2017-02-28T03:55:40.889Z,19.74
2017-02-28T03:56:08.951Z,19.67
2017-02-28T03:56:36.986Z,19.67
2017-02-28T03:57:05.025Z,19.72
2017-02-28T03:57:33.204Z,19.72
2017-02-28T03:58:01.662Z,19.74
2017-02-28T03:58:29.852Z,19.74
2017-02-28T03:58:57.983Z,19.71
2017-02-28T03:59:26.097Z,19.74
2017-02-28T03:59:54.544Z,19.78
2017-02-28T04:00:22.609Z,19.7
2017-02-28T04:00:50.726Z,19.75
2017-02-28T04:01:18.953Z,19.74
2017-02-28T04:01:47.131Z,19.78
2017-02-28T04:02:15.382Z,19.71
2017-02-28T04:02:43.488Z,19.72
2017-02-28T04:03:11.650Z,19.65
2017-02-28T04:03:39.794Z,19.67
2017-02-28T04:04:08.033Z,19.64
2017-02-28T04:04:36.058Z,19.65
2017-02-28T04:05:04.324Z,19.72
2017-02-28T04:05:32.493Z,19.68
2017-02-28T04:06:00.715Z,19.65
2017-02-28T04:06:28.869Z,19.63
2017-02-28T04:06:57.071Z,19.64
2017-02-28T04:07:25.290Z,19.67
2017-02-28T04:07:53.309Z,19.65
2017-02-28T04:08:21.341Z,19.67
2017-02-28T04:08:49.515Z,19.63
2017-02-28T04:09:17.695Z,19.6
2017-02-28T04:09:45.773Z,19.53
2017-02-28T04:10:13.831Z,19.61
2017-02-28T04:10:42.002Z,19.53
2017-02-28T04:11:10.154Z,19.63
2017-02-28T04:11:38.358Z,19.53
2017-02-28T04:12:06.501Z,19.49
2017-02-28T04:12:34.703Z,19.53
2017-02-28T04:13:02.745Z,19.52
2017-02-28T04:13:31.047Z,19.52
2017-02-28T04:13:59.217Z,19.55
2017-02-28T04:14:27.380Z,19.53
2017-02-28T04:14:55.624Z,19.57
2017-02-28T04:15:23.725Z,19.63
2017-02-28T04:15:51.998Z,19.64
2017-02-28T04:16:20.191Z,19.64
2017-02-28T04:16:48.226Z,19.75
2017-02-28T04:17:16.405Z,19.79
2017-02-28T04:17:44.455Z,19.7
2017-02-28T04:18:12.408Z,19.78
2017-02-28T04:18:40.580Z,19.74
2017-02-28T04:19:08.620Z,19.8
2017-02-28T04:19:36.887Z,19.85
2017-02-28T04:20:05.307Z,19.72
2017-02-28T04:20:33.559Z,19.74
2017-02-28T04:21:01.738Z,19.71
2017-02-28T04:21:29.850Z,19.71
2017-02-28T04:21:58.001Z,19.86
2017-02-28T04:22:26.115Z,19.8
2017-02-28T04:22:54.175Z,19.83
2017-02-28T04:23:22.272Z,19.8
2017-02-28T04:23:50.275Z,19.85
2017-02-28T04:24:18.407Z,19.78
2017-02-28T04:24:46.454Z,19.78
2017-02-28T04:25:14.759Z,19.75
2017-02-28T04:25:42.780Z,19.75
2017-02-28T04:26:10.995Z,19.7
2017-02-28T04:26:39.001Z,19.64
2017-02-28T04:27:07.160Z,19.67
2017-02-28T04:27:35.195Z,19.67
2017-02-28T04:28:03.383Z,19.57
2017-02-28T04:28:31.510Z,19.64
2017-02-28T04:28:59.711Z,19.63
2017-02-28T04:29:27.892Z,19.6
2017-02-28T04:29:56.014Z,19.7
2017-02-28T04:30:24.173Z,19.57
2017-02-28T04:30:52.255Z,19.67
2017-02-28T04:31:20.240Z,19.61
2017-02-28T04:31:48.495Z,19.64
2017-02-28T04:32:16.733Z,19.64
2017-02-28T04:32:44.837Z,19.63
2017-02-28T04:33:13.094Z,19.64
2017-02-28T04:33:41.232Z,19.64
2017-02-28T04:34:09.386Z,19.57
2017-02-28T04:34:37.628Z,19.61
2017-02-28T04:35:05.773Z,19.56
2017-02-28T04:35:33.852Z,19.49
2017-02-28T04:36:02.106Z,19.49
2017-02-28T04:36:30.175Z,19.55
2017-02-28T04:36:58.287Z,19.53
2017-02-28T04:37:26.373Z,19.6
2017-02-28T04:37:54.434Z,19.55
2017-02-28T04:38:22.431Z,19.53
2017-02-28T04:38:50.510Z,19.5
2017-02-28T04:39:18.648Z,19.53
2017-02-28T04:39:46.798Z,19.52
2017-02-28T04:40:14.942Z,19.5
2017-02-28T04:40:42.998Z,19.45
2017-02-28T04:41:11.262Z,19.45
2017-02-28T04:41:39.417Z,19.43
2017-02-28T04:42:07.663Z,19.34
2017-02-28T04:42:35.820Z,19.46
2017-02-28T04:43:03.953Z,19.4
2017-02-28T04:43:32.068Z,19.5
2017-02-28T04:44:00.166Z,19.49
2017-02-28T04:44:28.362Z,19.43
2017-02-28T04:44:56.422Z,19.43
2017-02-28T04:45:24.787Z,19.45
2017-02-28T04:45:53.066Z,19.49
2017-02-28T04:46:21.111Z,19.5
2017-02-28T04:46:49.243Z,19.5
2017-02-28T04:47:17.768Z,19.53
2017-02-28T04:47:45.979Z,19.57
2017-02-28T04:48:14.036Z,19.47
2017-02-28T04:48:42.291Z,19.53
2017-02-28T04:49:10.387Z,19.47
2017-02-28T04:49:38.694Z,19.55
2017-02-28T04:50:06.870Z,19.52
2017-02-28T04:50:35.020Z,19.5
2017-02-28T04:51:03.097Z,19.55
2017-02-28T04:51:31.300Z,19.5
2017-02-28T04:51:59.488Z,19.61
2017-02-28T04:52:27.602Z,19.53
2017-02-28T04:52:55.613Z,19.55
2017-02-28T04:53:23.723Z,19.47
2017-02-28T04:53:51.839Z,19.5
2017-02-28T04:54:19.909Z,19.55
2017-02-28T04:54:47.865Z,19.53
2017-02-28T04:55:16.006Z,19.57
2017-02-28T04:55:44.201Z,19.53
2017-02-28T04:56:12.260Z,19.52
2017-02-28T04:56:40.365Z,19.49
2017-02-28T04:57:08.514Z,19.5
2017-02-28T04:57:36.702Z,19.5
2017-02-28T04:58:04.840Z,19.55
2017-02-28T04:58:33.073Z,19.52
2017-02-28T04:59:01.187Z,19.55
2017-02-28T04:59:29.239Z,19.57
2017-02-28T04:59:57.400Z,19.53
2017-02-28T05:00:25.485Z,19.53
2017-02-28T05:00:53.743Z,19.47
2017-02-28T05:01:21.816Z,19.55
2017-02-28T05:01:49.880Z,19.49
2017-02-28T05:02:17.980Z,19.45
2017-02-28T05:02:46.139Z,19.56
2017-02-28T05:03:14.094Z,19.49
2017-02-28T05:03:41.983Z,19.56
2017-02-28T05:04:10.211Z,19.57
2017-02-28T05:04:38.380Z,19.61
2017-02-28T05:05:06.468Z,19.56
2017-02-28T05:05:34.670Z,19.53
2017-02-28T05:06:02.775Z,19.46
2017-02-28T05:06:30.951Z,19.47
2017-02-28T05:06:59.153Z,19.46
2017-02-28T05:07:27.269Z,19.55
2017-02-28T05:07:55.239Z,19.55
2017-02-28T05:08:23.410Z,19.52
2017-02-28T05:08:51.439Z,19.55
2017-02-28T05:09:19.701Z,19.47
2017-02-28T05:09:47.936Z,19.53
2017-02-28T05:10:16.065Z,19.5
2017-02-28T05:10:44.569Z,19.5
2017-02-28T05:11:12.500Z,19.53
2017-02-28T05:11:40.615Z,19.47
2017-02-28T05:12:08.801Z,19.42
2017-02-28T05:12:36.988Z,19.55
2017-02-28T05:13:05.144Z,19.56
2017-02-28T05:13:33.275Z,19.5
2017-02-28T05:14:01.342Z,19.57
2017-02-28T05:14:29.375Z,19.56
2017-02-28T05:14:57.401Z,19.46
2017-02-28T05:15:25.555Z,19.5
2017-02-28T05:15:53.731Z,19.6
2017-02-28T05:16:21.848Z,19.65
2017-02-28T05:16:49.897Z,19.61
2017-02-28T05:17:18.040Z,19.63
2017-02-28T05:17:46.162Z,19.67
2017-02-28T05:18:14.415Z,19.67
2017-02-28T05:18:42.605Z,19.74
2017-02-28T05:19:10.831Z,19.74
2017-02-28T05:19:38.961Z,19.74
2017-02-28T05:20:07.090Z,19.78
2017-02-28T05:20:35.333Z,19.72
2017-02-28T05:21:03.237Z,19.78
2017-02-28T05:21:31.437Z,19.72
2017-02-28T05:21:59.639Z,19.7
2017-02-28T05:22:27.748Z,19.79
2017-02-28T05:22:56.033Z,19.7
2017-02-28T05:23:24.244Z,19.65
2017-02-28T05:23:52.397Z,19.72
2017-02-28T05:24:20.491Z,19.67
2017-02-28T05:24:48.762Z,19.65
2017-02-28T05:25:17.026Z,19.64
2017-02-28T05:25:45.107Z,19.65
2017-02-28T05:26:13.295Z,19.8
2017-02-28T05:26:41.558Z,19.67
2017-02-28T05:27:09.727Z,19.67
2017-02-28T05:27:37.922Z,19.72
2017-02-28T05:28:06.171Z,19.67
2017-02-28T05:28:34.340Z,19.64
2017-02-28T05:29:02.500Z,19.67
2017-02-28T05:29:30.561Z,19.63
2017-02-28T05:29:58.729Z,19.63
2017-02-28T05:30:26.687Z,19.7
2017-02-28T05:30:54.839Z,19.74
2017-02-28T05:31:23.113Z,19.68
2017-02-28T05:31:51.271Z,19.63
2017-02-28T05:32:19.320Z,19.64
2017-02-28T05:32:47.495Z,19.64
2017-02-28T05:33:15.841Z,19.67
2017-02-28T05:33:43.853Z,19.65
2017-02-28T05:34:12.038Z,19.64
2017-02-28T05:34:40.187Z,19.74
2017-02-28T05:35:08.295Z,19.7
2017-02-28T05:35:36.537Z,19.68
2017-02-28T05:36:04.657Z,19.7
2017-02-28T05:36:32.953Z,19.68
2017-02-28T05:37:01.087Z,19.67
2017-02-28T05:37:29.176Z,19.64
2017-02-28T05:37:57.421Z,19.65
2017-02-28T05:38:25.634Z,19.68
2017-02-28T05:38:53.691Z,19.65
2017-02-28T05:39:21.906Z,19.55
2017-02-28T05:39:49.926Z,19.61
2017-02-28T05:40:17.958Z,19.57
2017-02-28T05:40:46.158Z,19.52
2017-02-28T05:41:14.266Z,19.56
2017-02-28T05:41:42.412Z,19.56
2017-02-28T05:42:10.570Z,19.53
2017-02-28T05:42:38.638Z,19.53
2017-02-28T05:43:06.740Z,19.47
2017-02-28T05:43:34.970Z,19.53
2017-02-28T05:44:02.929Z,19.46
2017-02-28T05:44:31.083Z,19.46
2017-02-28T05:44:59.125Z,19.47
2017-02-28T05:45:27.375Z,19.38
2017-02-28T05:45:55.605Z,19.34
2017-02-28T05:46:23.899Z,19.34
2017-02-28T05:46:52.054Z,19.38
2017-02-28T05:47:20.044Z,19.38
2017-02-28T05:47:48.078Z,19.3
2017-02-28T05:48:16.155Z,19.34
2017-02-28T05:48:44.603Z,19.5
2017-02-28T05:49:12.593Z,19.5
2017-02-28T05:49:40.759Z,19.46
2017-02-28T05:50:08.972Z,19.5
2017-02-28T05:50:37.176Z,19.47
2017-02-28T05:51:05.253Z,19.55
2017-02-28T05:51:33.456Z,19.43
2017-02-28T05:52:01.682Z,19.57
2017-02-28T05:52:29.940Z,19.52
2017-02-28T05:52:58.144Z,19.61
2017-02-28T05:53:26.222Z,19.46
2017-02-28T05:53:54.429Z,19.52
2017-02-28T05:54:22.416Z,19.6
2017-02-28T05:54:50.509Z,19.52
2017-02-28T05:55:18.616Z,19.52
2017-02-28T05:55:46.724Z,19.53
2017-02-28T05:56:14.805Z,19.55
2017-02-28T05:56:43.018Z,19.53
2017-02-28T05:57:11.166Z,19.46
2017-02-28T05:57:39.300Z,19.49
2017-02-28T05:58:07.551Z,19.43
2017-02-28T05:58:35.737Z,19.46
2017-02-28T05:59:03.773Z,19.4
2017-02-28T05:59:31.951Z,19.38
2017-02-28T06:00:00.078Z,19.37
2017-02-28T06:00:28.168Z,19.47
2017-02-28T06:00:56.090Z,19.31
2017-02-28T06:01:24.347Z,19.35
2017-02-28T06:01:52.590Z,19.37
2017-02-28T06:02:20.676Z,19.4
2017-02-28T06:02:48.731Z,19.4
2017-02-28T06:03:16.778Z,19.32
2017-02-28T06:03:45.026Z,19.38